Time;durP1;ratioP1;P1;durP2;ratioP2;P2;SDS_P1;SDS_P2;PMS_P1;PMS_P2;Temp;Humidity;BMP_temperature;BMP_pressure;BME280_temperature;BME280_humidity;BME280_pressure;Samples;Min_cycle;Max_cycle;Signal;HPM_P1;HPM_P2
2023/02/16 00:00:07;;;;;;;39.20;15.43;;;;;;;-2.32;100.00;101650.84;4958895;28;20749;-76
2023/02/16 00:02:33;;;;;;;41.07;14.97;;;;;;;-2.22;100.00;101649.53;4955938;28;20691;-75
2023/02/16 00:05:00;;;;;;;37.00;16.03;;;;;;;-2.23;100.00;101641.00;4958884;28;20401;-75
2023/02/16 00:07:26;;;;;;;43.40;15.00;;;;;;;-2.20;100.00;101646.25;4947942;28;20228;-75
2023/02/16 00:09:54;;;;;;;37.53;16.33;;;;;;;-2.06;100.00;101640.84;4974302;28;20446;-76
2023/02/16 00:15:16;;;;;;;44.97;16.63;;;;;;;-1.97;100.00;101649.78;4975325;28;20202;-74
2023/02/16 00:17:42;;;;;;;43.70;16.30;;;;;;;-1.91;100.00;101644.91;4969640;28;20202;-75
2023/02/16 00:20:14;;;;;;;39.03;16.17;;;;;;;-1.85;100.00;101641.72;4977313;28;20257;-76
2023/02/16 00:22:40;;;;;;;46.50;16.80;;;;;;;-1.86;100.00;101634.00;4957055;28;20241;-74
2023/02/16 00:25:08;;;;;;;44.93;17.17;;;;;;;-1.85;100.00;101628.94;4979465;28;20202;-75
2023/02/16 00:27:35;;;;;;;45.27;16.63;;;;;;;-1.81;100.00;101630.81;4975083;28;20221;-77
2023/02/16 00:30:02;;;;;;;42.27;16.63;;;;;;;-1.80;100.00;101629.97;4976813;28;20229;-77
2023/02/16 00:32:28;;;;;;;47.37;17.00;;;;;;;-1.72;100.00;101633.72;4972748;28;20236;-76
2023/02/16 00:34:55;;;;;;;40.57;16.13;;;;;;;-1.68;100.00;101636.44;4968793;28;20266;-76
2023/02/16 00:37:21;;;;;;;40.30;16.40;;;;;;;-1.60;100.00;101635.03;4952720;28;20222;-77
2023/02/16 00:39:48;;;;;;;40.77;16.10;;;;;;;-1.53;100.00;101624.22;4977044;28;20208;-75
2023/02/16 00:42:19;;;;;;;39.70;15.13;;;;;;;-1.48;100.00;101621.84;4954715;28;20201;-75
2023/02/16 00:44:48;;;;;;;40.60;16.57;;;;;;;-1.41;100.00;101618.72;4993781;23;20236;-72
2023/02/16 00:47:19;;;;;;;41.27;16.37;;;;;;;-1.39;100.00;101620.53;4964110;28;20563;-72
2023/02/16 00:49:47;;;;;;;34.93;14.87;;;;;;;-1.38;100.00;101626.53;4965601;28;20252;-73
2023/02/16 00:52:32;;;;;;;39.90;15.37;;;;;;;-1.33;100.00;101628.44;4965631;28;20204;-73
2023/02/16 00:55:00;;;;;;;45.30;16.53;;;;;;;-1.31;100.00;101633.63;4988100;28;20369;-73
2023/02/16 00:57:33;;;;;;;55.30;16.90;;;;;;;-1.30;100.00;101626.81;4988606;28;20209;-72
2023/02/16 01:00:02;;;;;;;40.83;15.73;;;;;;;-1.31;100.00;101625.94;4987415;28;20225;-72
2023/02/16 01:02:30;;;;;;;41.27;15.73;;;;;;;-1.34;100.00;101629.25;4985545;28;20185;-73
2023/02/16 01:04:56;;;;;;;45.77;15.20;;;;;;;-1.34;100.00;101629.25;4971351;28;20217;-74
2023/02/16 01:12:53;;;;;;;36.93;15.80;;;;;;;-1.37;100.00;101630.84;4987578;28;20220;-73
2023/02/16 01:15:24;;;;;;;35.13;15.00;;;;;;;-1.44;100.00;101633.94;4985591;28;20213;-73
2023/02/16 01:17:51;;;;;;;41.33;15.93;;;;;;;-1.49;100.00;101630.34;4966654;28;20304;-73
2023/02/16 01:20:20;;;;;;;41.47;16.30;;;;;;;-1.54;100.00;101632.72;4972572;28;20193;-73
2023/02/16 01:22:46;;;;;;;44.73;14.80;;;;;;;-1.61;100.00;101635.84;4987081;28;20205;-73
2023/02/16 01:25:14;;;;;;;32.10;14.03;;;;;;;-1.66;100.00;101643.34;4988502;28;20288;-73
2023/02/16 01:27:42;;;;;;;38.70;14.73;;;;;;;-1.71;100.00;101639.72;4988830;28;20197;-73
2023/02/16 01:30:15;;;;;;;38.43;14.87;;;;;;;-1.76;100.00;101647.22;4984609;28;20752;-73
2023/02/16 01:32:46;;;;;;;32.03;14.63;;;;;;;-1.76;100.00;101641.22;4981939;28;20269;-73
2023/02/16 01:35:13;;;;;;;37.17;13.83;;;;;;;-1.73;100.00;101643.91;4970905;28;20229;-73
2023/02/16 01:37:40;;;;;;;37.43;13.50;;;;;;;-1.69;100.00;101643.19;4988224;28;20208;-73
2023/02/16 01:40:20;;;;;;;40.13;15.60;;;;;;;-1.66;100.00;101647.59;4986704;28;20208;-74
2023/02/16 01:42:52;;;;;;;44.43;15.90;;;;;;;-1.69;100.00;101643.19;4984567;28;20205;-73
2023/02/16 01:45:30;;;;;;;34.20;14.20;;;;;;;-1.68;100.00;101634.72;4983630;28;20312;-73
2023/02/16 01:48:03;;;;;;;41.37;15.03;;;;;;;-1.67;100.00;101628.81;4984725;28;20304;-73
2023/02/16 01:50:42;;;;;;;37.33;15.17;;;;;;;-1.65;100.00;101628.84;4985128;28;20228;-73
2023/02/16 01:53:18;;;;;;;42.43;14.43;;;;;;;-1.67;100.00;101633.94;4981083;28;20208;-73
2023/02/16 01:55:47;;;;;;;33.60;14.60;;;;;;;-1.68;100.00;101623.63;4968145;28;20227;-73
2023/02/16 01:58:20;;;;;;;38.33;15.23;;;;;;;-1.70;100.00;101628.69;4986899;28;20209;-73
2023/02/16 02:01:29;;;;;;;30.27;13.40;;;;;;;-1.66;100.00;101622.00;4985544;28;20817;-73
2023/02/16 02:06:41;;;;;;;33.73;13.73;;;;;;;-1.80;100.00;101608.66;4971979;28;20221;-73
2023/02/16 02:09:14;;;;;;;38.40;14.33;;;;;;;-1.84;100.00;101615.34;4989253;28;20209;-73
2023/02/16 02:11:45;;;;;;;40.27;14.30;;;;;;;-1.91;100.00;101611.66;4989219;28;20229;-74
2023/02/16 02:14:18;;;;;;;33.90;14.20;;;;;;;-1.96;100.00;101613.16;4974203;28;20225;-73
2023/02/16 02:16:55;;;;;;;36.57;14.47;;;;;;;-2.00;100.00;101611.28;4965304;28;20265;-73
2023/02/16 02:19:22;;;;;;;36.30;14.50;;;;;;;-2.05;100.00;101614.47;4986165;28;20495;-73
2023/02/16 02:25:31;;;;;;;30.83;13.17;;;;;;;-2.13;100.00;101617.59;4984291;28;20220;-73
2023/02/16 02:28:05;;;;;;;30.87;12.70;;;;;;;-2.15;100.00;101613.22;4908665;28;20557;-73
2023/02/16 02:30:45;;;;;;;37.83;13.80;;;;;;;-2.23;100.00;101617.13;4986451;28;20273;-73
2023/02/16 02:33:32;;;;;;;31.13;13.27;;;;;;;-2.32;100.00;101612.53;4985121;28;20265;-73
2023/02/16 02:36:10;;;;;;;31.67;12.23;;;;;;;-2.36;100.00;101598.72;4973998;28;20224;-73
2023/02/16 02:38:43;;;;;;;38.33;14.40;;;;;;;-2.34;100.00;101599.69;4987619;28;20241;-73
2023/02/16 02:41:18;;;;;;;32.93;12.90;;;;;;;-2.34;100.00;101597.13;4984999;28;20209;-73
2023/02/16 02:43:53;;;;;;;38.30;14.30;;;;;;;-2.36;100.00;101602.97;4972976;28;20204;-74
2023/02/16 02:46:25;;;;;;;33.83;13.83;;;;;;;-2.36;100.00;101605.53;4970584;28;20424;-73
2023/02/16 02:48:51;;;;;;;33.53;12.97;;;;;;;-2.34;100.00;101606.44;4969830;28;20209;-72
2023/02/16 02:51:32;;;;;;;30.70;12.03;;;;;;;-2.38;100.00;101609.69;4971371;28;20224;-73
2023/02/16 03:02:33;;;;;;;23.33;12.63;;;;;;;-2.59;100.00;101589.22;4969925;28;20515;-73
2023/02/16 03:05:02;;;;;;;23.63;11.77;;;;;;;-2.61;100.00;101590.84;4988417;28;20295;-73
2023/02/16 03:07:46;;;;;;;27.57;12.03;;;;;;;-2.58;100.00;101593.53;4966689;28;20412;-73
2023/02/16 03:13:01;;;;;;;29.83;12.43;;;;;;;-2.58;100.00;101596.97;4991157;28;20205;-73
2023/02/16 03:15:30;;;;;;;29.90;10.70;;;;;;;-2.58;100.00;101603.75;4989952;28;20224;-73
2023/02/16 03:29:18;;;;;;;27.50;12.37;;;;;;;-2.66;100.00;101590.63;4991291;28;20194;-73
2023/02/16 03:31:46;;;;;;;27.47;12.10;;;;;;;-2.66;100.00;101590.63;4990407;28;20205;-73
2023/02/16 03:34:14;;;;;;;30.60;12.60;;;;;;;-2.67;100.00;101597.44;4983712;28;20276;-73
2023/02/16 03:36:43;;;;;;;29.30;12.83;;;;;;;-2.70;100.00;101596.44;4989579;28;20555;-73
2023/02/16 03:39:10;;;;;;;29.27;13.07;;;;;;;-2.72;100.00;101591.25;4988467;28;20240;-73
2023/02/16 03:41:40;;;;;;;25.73;12.20;;;;;;;-2.72;100.00;101596.34;4988574;28;20284;-73
2023/02/16 03:44:06;;;;;;;28.73;12.03;;;;;;;-2.70;100.00;101593.88;4988778;28;20228;-73
2023/02/16 03:46:33;;;;;;;34.43;13.67;;;;;;;-2.72;100.00;101593.81;4986582;28;20366;-73
2023/02/16 03:49:02;;;;;;;29.00;11.67;;;;;;;-2.74;100.00;101586.91;4984737;28;20210;-73
2023/02/16 03:51:29;;;;;;;29.33;12.73;;;;;;;-2.76;100.00;101585.94;4988035;28;20245;-73
2023/02/16 03:53:55;;;;;;;32.23;13.23;;;;;;;-2.79;100.00;101581.56;4986517;28;20464;-73
2023/02/16 03:56:21;;;;;;;31.17;12.40;;;;;;;-2.82;100.00;101588.22;4972581;28;20581;-73
2023/02/16 03:58:48;;;;;;;31.97;12.47;;;;;;;-2.84;100.00;101584.75;4986465;28;20193;-73
2023/02/16 04:01:14;;;;;;;25.17;11.40;;;;;;;-2.83;100.00;101586.47;4983809;28;20405;-73
2023/02/16 04:03:40;;;;;;;26.37;11.50;;;;;;;-2.87;100.00;101590.56;4991420;28;20645;-74
2023/02/16 04:06:08;;;;;;;26.70;12.20;;;;;;;-2.90;100.00;101593.00;4972523;28;20233;-73
2023/02/16 04:08:35;;;;;;;26.97;11.47;;;;;;;-2.93;100.00;101593.72;4987142;28;20212;-73
2023/02/16 04:12:34;;;;;;;23.40;11.33;;;;;;;-2.94;100.00;101601.31;4988431;28;20212;-73
2023/02/16 04:13:47;;;;;;;29.30;12.67;;;;;;;-2.94;100.00;101591.09;4983194;28;20202;-73
2023/02/16 04:16:13;;;;;;;23.57;11.27;;;;;;;-2.97;100.00;101583.31;4987773;28;20215;-73
2023/02/16 04:18:39;;;;;;;20.73;10.20;;;;;;;-2.98;100.00;101586.69;4987388;28;20197;-73
2023/02/16 04:21:06;;;;;;;24.47;10.40;;;;;;;-2.99;100.00;101583.28;4985344;28;20190;-74
2023/02/16 04:23:33;;;;;;;23.83;11.10;;;;;;;-3.00;100.00;101586.63;4987731;28;20205;-73
2023/02/16 04:26:00;;;;;;;22.23;10.73;;;;;;;-3.00;100.00;101581.50;4985078;28;20313;-74
2023/02/16 04:28:26;;;;;;;33.77;12.70;;;;;;;-3.02;100.00;101572.91;4984915;28;20686;-73
2023/02/16 04:30:52;;;;;;;28.83;13.13;;;;;;;-3.00;100.00;101581.50;4985529;28;20217;-73
2023/02/16 04:33:19;;;;;;;27.07;12.00;;;;;;;-3.02;100.00;101578.03;4986400;28;20209;-74
2023/02/16 04:35:45;;;;;;;29.57;11.60;;;;;;;-3.01;100.00;101587.41;4987812;28;20225;-72
2023/02/16 04:38:12;;;;;;;23.53;11.33;;;;;;;-3.07;100.00;101585.47;4990416;28;20201;-73
2023/02/16 04:40:39;;;;;;;28.57;12.03;;;;;;;-3.12;100.00;101588.63;4975402;28;20212;-72
2023/02/16 04:43:06;;;;;;;28.50;11.70;;;;;;;-3.12;100.00;101593.72;4986463;28;20562;-73
2023/02/16 04:45:32;;;;;;;26.07;11.70;;;;;;;-3.15;100.00;101597.03;4989187;28;20237;-73
2023/02/16 04:47:59;;;;;;;23.27;11.33;;;;;;;-3.13;100.00;101594.50;4986107;28;20205;-73
2023/02/16 04:50:25;;;;;;;32.30;10.93;;;;;;;-3.15;100.00;101606.31;4987141;28;20480;-73
2023/02/16 04:52:52;;;;;;;27.20;12.07;;;;;;;-3.15;100.00;101606.31;4987638;28;20209;-73
2023/02/16 04:55:18;;;;;;;19.00;10.10;;;;;;;-3.18;100.00;101607.06;4978165;28;20309;-73
2023/02/16 04:57:46;;;;;;;21.83;10.73;;;;;;;-3.14;100.00;101601.31;4988067;28;20198;-72
2023/02/16 05:00:13;;;;;;;27.77;10.60;;;;;;;-3.11;100.00;101598.03;4988744;28;20206;-72
2023/02/16 05:02:39;;;;;;;24.70;10.83;;;;;;;-3.14;100.00;101605.53;4987917;28;20205;-73
2023/02/16 05:05:07;;;;;;;23.03;10.53;;;;;;;-3.17;100.00;101601.16;4986942;28;20480;-73
2023/02/16 05:07:33;;;;;;;24.30;11.37;;;;;;;-3.18;100.00;101593.44;4983889;28;20464;-73
2023/02/16 05:09:59;;;;;;;19.27;9.80;;;;;;;-3.19;100.00;101599.34;4981960;28;20479;-73
2023/02/16 05:15:11;;;;;;;23.77;10.93;;;;;;;-3.13;100.00;101597.06;4985907;28;21066;-73
2023/02/16 05:17:37;;;;;;;26.90;11.00;;;;;;;-3.17;100.00;101585.84;4969640;28;20471;-73
2023/02/16 05:20:05;;;;;;;20.80;10.03;;;;;;;-3.19;100.00;101592.56;4985733;28;20456;-73
2023/02/16 05:22:33;;;;;;;25.27;11.27;;;;;;;-3.11;100.00;101587.81;4987555;28;20204;-72
2023/02/16 05:24:59;;;;;;;29.53;12.00;;;;;;;-3.14;100.00;101586.00;4988843;28;20209;-74
2023/02/16 05:27:28;;;;;;;29.00;12.80;;;;;;;-3.18;100.00;101585.78;4988141;28;20473;-73
2023/02/16 05:29:54;;;;;;;24.90;11.83;;;;;;;-3.20;100.00;101593.38;4986411;28;20456;-73
2023/02/16 05:32:22;;;;;;;22.57;11.47;;;;;;;-3.24;100.00;101584.72;4988480;28;21105;-73
2023/02/16 05:34:48;;;;;;;26.23;11.70;;;;;;;-3.28;100.00;101577.72;4987729;28;20476;-73
2023/02/16 05:37:16;;;;;;;29.03;11.60;;;;;;;-3.30;100.00;101578.47;4972408;28;20797;-74
2023/02/16 05:39:43;;;;;;;25.33;11.20;;;;;;;-3.29;100.00;101582.75;4970535;28;20768;-73
2023/02/16 05:42:09;;;;;;;23.70;11.30;;;;;;;-3.28;100.00;101587.06;4989518;28;20220;-73
2023/02/16 05:44:37;;;;;;;28.07;11.83;;;;;;;-3.31;100.00;101581.81;4974404;28;20491;-74
2023/02/16 05:47:03;;;;;;;26.20;11.87;;;;;;;-3.27;100.00;101579.47;4991574;28;20282;-74
2023/02/16 05:49:31;;;;;;;30.43;12.27;;;;;;;-3.26;100.00;101586.31;4991080;28;20476;-73
2023/02/16 05:51:57;;;;;;;25.43;12.03;;;;;;;-3.28;100.00;101582.81;4990306;28;20487;-73
2023/02/16 05:54:24;;;;;;;22.70;12.10;;;;;;;-3.28;100.00;101584.50;4969832;28;20484;-74
2023/02/16 05:56:52;;;;;;;31.33;12.23;;;;;;;-3.30;100.00;101586.97;4988427;28;20700;-73
2023/02/16 05:59:19;;;;;;;27.70;11.93;;;;;;;-3.27;100.00;101588.81;4989656;28;20464;-73
2023/02/16 06:01:46;;;;;;;36.03;13.60;;;;;;;-3.26;100.00;101595.63;4983060;28;20208;-73
2023/02/16 06:04:14;;;;;;;27.00;12.23;;;;;;;-3.27;100.00;101596.47;4989816;28;20520;-73
2023/02/16 06:06:42;;;;;;;27.67;12.23;;;;;;;-3.28;100.00;101607.47;4986698;28;20202;-73
2023/02/16 06:09:09;;;;;;;39.83;17.97;;;;;;;-3.25;100.00;101599.94;4989118;28;20520;-74
2023/02/16 06:11:35;;;;;;;50.67;23.50;;;;;;;-3.23;100.00;101595.78;4986734;28;20487;-74
2023/02/16 06:14:03;;;;;;;32.17;14.70;;;;;;;-3.22;100.00;101592.41;4987157;28;20201;-73
2023/02/16 06:16:31;;;;;;;28.90;12.83;;;;;;;-3.24;100.00;101601.69;4983704;28;20607;-73
2023/02/16 06:18:58;;;;;;;32.13;14.93;;;;;;;-3.24;100.00;101582.16;4985511;28;20224;-72
2023/02/16 06:21:25;;;;;;;27.70;13.10;;;;;;;-3.22;100.00;101589.00;4983199;28;20207;-72
2023/02/16 06:23:53;;;;;;;22.40;11.57;;;;;;;-3.22;100.00;101591.56;4981264;28;20487;-72
2023/02/16 06:26:20;;;;;;;32.73;14.40;;;;;;;-3.22;100.00;101591.56;4962557;28;20236;-72
2023/02/16 06:28:46;;;;;;;27.20;12.77;;;;;;;-3.24;100.00;101592.38;4949071;28;20214;-72
2023/02/16 06:31:13;;;;;;;27.67;15.13;;;;;;;-3.21;100.00;101578.88;4965517;28;20283;-73
2023/02/16 06:33:39;;;;;;;28.37;12.77;;;;;;;-3.18;100.00;101580.66;4976543;28;20208;-73
2023/02/16 06:36:07;;;;;;;29.13;13.07;;;;;;;-3.15;100.00;101584.25;5001415;28;20217;-73
2023/02/16 06:38:33;;;;;;;29.90;13.17;;;;;;;-3.16;100.00;101576.53;4987763;28;20209;-73
2023/02/16 06:41:01;;;;;;;24.87;12.87;;;;;;;-3.07;100.00;101582.03;4999273;28;20448;-73
2023/02/16 06:43:28;;;;;;;30.27;12.37;;;;;;;-3.05;100.00;101588.09;5004290;28;20549;-73
2023/02/16 06:45:54;;;;;;;21.77;11.77;;;;;;;-3.04;100.00;101582.19;5002943;23;20316;-73
2023/02/16 06:48:21;;;;;;;27.47;12.87;;;;;;;-3.01;100.00;101589.09;4982293;28;20522;-73
2023/02/16 06:50:47;;;;;;;29.17;13.07;;;;;;;-2.99;100.00;101585.81;4978390;28;20232;-73
2023/02/16 06:53:13;;;;;;;23.47;13.57;;;;;;;-2.93;100.00;101580.09;4965845;28;20212;-75
2023/02/16 06:55:40;;;;;;;25.37;12.53;;;;;;;-2.89;100.00;101593.06;4985495;28;20200;-75
2023/02/16 06:58:12;;;;;;;29.80;13.37;;;;;;;-2.84;100.00;101589.84;4981346;28;20514;-75
2023/02/16 07:00:39;;;;;;;27.77;12.97;;;;;;;-2.82;100.00;101594.19;4978300;28;20236;-75
2023/02/16 07:03:06;;;;;;;28.40;12.43;;;;;;;-2.83;100.00;101595.03;4974909;28;20575;-75
2023/02/16 07:05:32;;;;;;;26.00;11.87;;;;;;;-2.80;100.00;101604.47;4976714;28;20202;-75
2023/02/16 07:07:58;;;;;;;28.90;13.20;;;;;;;-2.79;100.00;101602.00;4960922;28;20698;-74
2023/02/16 07:10:25;;;;;;;31.90;13.63;;;;;;;-2.77;100.00;101612.28;4981653;28;20225;-75
2023/02/16 07:12:51;;;;;;;28.13;14.23;;;;;;;-2.75;100.00;101621.75;4977720;28;20219;-75
2023/02/16 07:15:19;;;;;;;28.57;13.33;;;;;;;-2.69;100.00;101616.91;4977393;28;20205;-75
2023/02/16 07:17:46;;;;;;;29.13;12.40;;;;;;;-2.62;100.00;101612.97;4951726;28;20201;-76
2023/02/16 07:20:12;;;;;;;27.50;14.33;;;;;;;-2.62;100.00;101607.84;4959641;28;21317;-75
2023/02/16 07:22:39;;;;;;;27.73;13.20;;;;;;;-2.59;100.00;101610.50;4978873;28;20559;-75
2023/02/16 07:25:06;;;;;;;31.80;13.50;;;;;;;-2.53;100.00;101608.25;4984771;28;20213;-75
2023/02/16 07:27:33;;;;;;;27.30;13.40;;;;;;;-2.48;100.00;101605.88;4982871;28;20313;-75
2023/02/16 07:29:59;;;;;;;27.80;13.37;;;;;;;-2.42;100.00;101606.16;4982457;28;20214;-74
2023/02/16 07:32:29;;;;;;;26.83;12.17;;;;;;;-2.32;100.00;101602.31;4984370;28;20219;-75
2023/02/16 07:34:55;;;;;;;25.53;13.50;;;;;;;-2.20;100.00;101601.94;4984704;28;20416;-75
2023/02/16 07:37:21;;;;;;;32.27;15.00;;;;;;;-2.08;100.00;101606.69;4987903;28;20554;-75
2023/02/16 07:39:48;;;;;;;31.63;15.03;;;;;;;-1.99;100.00;101607.03;4987965;28;20682;-75
2023/02/16 07:42:14;;;;;;;30.33;16.00;;;;;;;-1.88;100.00;101615.16;4980306;28;20662;-74
2023/02/16 07:44:46;;;;;;;34.47;16.00;;;;;;;-1.79;100.00;101611.28;4965009;28;20291;-74
2023/02/16 07:47:13;;;;;;;32.27;16.20;;;;;;;-1.68;100.00;101611.72;4983479;28;20356;-74
2023/02/16 07:49:41;;;;;;;30.30;16.53;;;;;;;-1.56;100.00;101603.66;4981829;28;20285;-74
2023/02/16 07:52:07;;;;;;;37.40;17.33;;;;;;;-1.48;100.00;101609.94;4980775;28;20232;-74
2023/02/16 07:54:33;;;;;;;32.17;16.23;;;;;;;-1.40;100.00;101606.00;4979476;28;20741;-75
2023/02/16 07:57:00;;;;;;;41.43;18.63;;;;;;;-1.31;100.00;101608.03;4983413;28;20213;-75
2023/02/16 07:59:26;;;;;;;39.33;16.90;;;;;;;-1.16;100.00;101613.72;4979842;28;20737;-74
2023/02/16 08:01:52;;;;;;;41.70;18.07;;;;;;;-1.01;100.00;101608.28;4976672;28;20229;-75
2023/02/16 08:04:19;;;;;;;36.80;17.90;;;;;;;-0.88;100.00;101614.75;4978299;28;20209;-75
2023/02/16 08:06:51;;;;;;;48.07;20.23;;;;;;;-0.71;100.00;101617.03;4974554;28;20288;-74
2023/02/16 08:09:18;;;;;;;46.47;19.73;;;;;;;-0.61;100.00;101608.88;4957360;28;20234;-74
2023/02/16 08:11:44;;;;;;;41.07;19.33;;;;;;;-0.52;100.00;101605.75;4979007;28;20229;-75
2023/02/16 08:14:11;;;;;;;42.83;19.63;;;;;;;-0.43;100.00;101601.81;4975951;28;20208;-74
2023/02/16 08:16:38;;;;;;;49.80;21.87;;;;;;;-0.27;100.00;101607.47;4978871;28;20196;-74
2023/02/16 08:19:04;;;;;;;40.00;19.23;;;;;;;-0.16;100.00;101603.56;4977373;28;20883;-75
2023/02/16 08:21:33;;;;;;;48.13;20.33;;;;;;;-0.02;100.00;101610.03;4976134;28;20626;-74
2023/02/16 08:24:04;;;;;;;53.13;21.70;;;;;;;0.09;100.00;101612.06;4974016;28;20254;-75
2023/02/16 08:26:35;;;;;;;46.03;21.70;;;;;;;0.20;100.00;101623.56;4973639;28;20201;-75
2023/02/16 08:29:02;;;;;;;53.53;23.60;;;;;;;0.32;100.00;101621.38;4979325;28;20201;-75
2023/02/16 08:31:31;;;;;;;56.17;23.30;;;;;;;0.47;100.00;101614.97;4981212;28;20726;-75
2023/02/16 08:33:59;;;;;;;51.87;22.57;;;;;;;0.54;100.00;101620.34;4978899;28;20217;-75
2023/02/16 08:36:28;;;;;;;56.27;22.93;;;;;;;0.64;100.00;101618.94;4983476;28;20189;-74
2023/02/16 08:38:55;;;;;;;56.13;23.73;;;;;;;0.79;100.00;101621.09;4977941;28;20692;-74
2023/02/16 08:41:25;;;;;;;69.60;24.73;;;;;;;0.91;100.00;101618.00;4983431;28;20570;-75
2023/02/16 08:43:54;;;;;;;67.03;24.83;;;;;;;1.11;100.00;101616.03;4963008;28;20209;-74
2023/02/16 08:46:21;;;;;;;79.20;26.47;;;;;;;1.21;100.00;101617.16;4985667;28;20233;-75
2023/02/16 08:48:48;;;;;;;73.20;27.67;;;;;;;1.35;100.00;101623.53;4981327;28;20252;-75
2023/02/16 08:51:22;;;;;;;65.50;25.83;;;;;;;1.50;100.00;101617.97;4984878;28;20221;-74
2023/02/16 08:53:49;;;;;;;72.80;27.40;;;;;;;1.57;100.00;101611.31;4983187;28;20574;-75
2023/02/16 08:56:15;;;;;;;80.43;27.73;;;;;;;1.63;100.00;101608.88;4984445;28;20690;-74
2023/02/16 08:58:43;;;;;;;66.87;27.70;;;;;;;1.75;100.00;101608.34;4984173;28;20205;-75
2023/02/16 09:01:11;;;;;;;73.77;28.60;;;;;;;1.88;100.00;101605.22;4980881;28;20236;-74
2023/02/16 09:03:41;;;;;;;73.10;26.80;;;;;;;2.01;100.00;101607.28;4979104;28;20216;-75
2023/02/16 09:06:11;;;;;;;75.83;27.83;;;;;;;2.12;100.00;101609.25;4983709;28;20808;-75
2023/02/16 09:08:38;;;;;;;71.50;27.63;;;;;;;2.26;100.00;101610.44;4979565;28;20205;-75
2023/02/16 09:11:06;;;;;;;78.40;27.80;;;;;;;2.39;100.00;101604.75;4978394;28;20283;-73
2023/02/16 09:13:34;;;;;;;77.50;28.40;;;;;;;2.51;100.00;101603.28;4976484;28;20213;-73
2023/02/16 09:16:04;;;;;;;79.33;29.13;;;;;;;2.60;100.00;101606.97;4970543;28;20610;-74
2023/02/16 09:18:32;;;;;;;81.33;29.43;;;;;;;2.75;100.00;101608.97;4974580;28;20208;-75
2023/02/16 09:21:05;;;;;;;71.33;27.77;;;;;;;2.90;100.00;101610.16;4973298;28;20244;-76
2023/02/16 09:23:32;;;;;;;70.80;30.27;;;;;;;2.97;100.00;101609.44;4963193;28;20232;-75
2023/02/16 09:26:00;;;;;;;72.00;27.40;;;;;;;3.11;100.00;101610.56;4976921;28;20224;-75
2023/02/16 09:28:27;;;;;;;72.87;27.03;;;;;;;3.25;100.00;101618.59;4979408;28;20213;-75
2023/02/16 09:30:54;;;;;;;67.57;27.20;;;;;;;3.31;100.00;101611.00;4980613;28;20308;-75
2023/02/16 09:33:21;;;;;;;68.47;26.40;;;;;;;3.36;100.00;101605.91;4982416;28;20227;-75
2023/02/16 09:35:48;;;;;;;55.80;25.23;;;;;;;3.47;100.00;101606.13;4979341;28;20208;-75
2023/02/16 09:38:15;;;;;;;53.97;26.47;;;;;;;3.63;100.00;101617.59;4977156;28;20218;-75
2023/02/16 09:40:42;;;;;;;52.50;22.33;;;;;;;3.75;100.00;101620.41;4976388;28;20700;-75
2023/02/16 09:43:16;;;;;;;38.70;20.50;;;;;;;3.87;100.00;101625.78;4979348;28;20216;-75
2023/02/16 09:45:47;;;;;;;41.90;20.97;;;;;;;3.90;100.00;101612.91;4974788;28;20219;-75
2023/02/16 09:48:29;;;;;;;39.77;22.10;;;;;;;4.05;100.00;101616.63;4978405;28;20212;-75
2023/02/16 09:50:58;;;;;;;32.90;17.53;;;;;;;4.10;100.00;101617.56;4978269;28;20220;-73
2023/02/16 09:53:34;;;;;;;30.63;16.00;;;;;;;4.17;100.00;101621.97;4974114;28;20293;-73
2023/02/16 09:56:14;;;;;;;23.80;13.50;;;;;;;4.25;100.00;101630.69;4977982;28;20234;-75
2023/02/16 09:58:44;;;;;;;29.30;15.00;;;;;;;4.35;100.00;101627.41;4974922;28;20407;-75
2023/02/16 10:01:18;;;;;;;26.13;12.73;;;;;;;4.43;100.00;101622.34;4974221;28;20231;-75
2023/02/16 10:04:00;;;;;;;24.10;12.73;;;;;;;4.54;100.00;101620.81;4975050;28;20201;-74
2023/02/16 10:06:36;;;;;;;24.63;13.40;;;;;;;4.62;100.00;101630.41;4975306;28;20201;-76
2023/02/16 10:09:06;;;;;;;25.80;13.07;;;;;;;4.66;100.00;101614.06;4977159;28;20205;-74
2023/02/16 10:11:41;;;;;;;24.17;12.47;;;;;;;4.71;100.00;101621.06;4971072;28;20679;-74
2023/02/16 10:14:18;;;;;;;23.47;12.77;;;;;;;4.74;100.00;101610.75;4973348;28;20212;-74
2023/02/16 10:16:52;;;;;;;23.13;12.83;;;;;;;4.85;100.00;101607.44;4975564;28;20193;-75
2023/02/16 10:19:25;;;;;;;21.20;12.73;;;;;;;4.93;100.00;101611.88;4974431;28;20256;-74
2023/02/16 10:21:56;;;;;;;24.87;14.07;;;;;;;5.04;100.00;101614.59;4974234;28;20217;-74
2023/02/16 10:24:25;;;;;;;21.03;12.60;;;;;;;5.06;100.00;101609.44;4976084;28;20312;-75
2023/02/16 10:27:01;;;;;;;24.37;12.67;;;;;;;5.11;100.00;101603.47;4978868;28;20204;-75
2023/02/16 10:29:29;;;;;;;25.73;13.13;;;;;;;5.16;100.00;101607.84;4981941;28;20519;-75
2023/02/16 10:32:06;;;;;;;22.53;12.90;;;;;;;5.15;100.00;101604.38;4977811;28;21843;-75
2023/02/16 10:34:47;;;;;;;21.43;12.27;;;;;;;5.21;100.00;101596.72;4976626;28;20268;-74
2023/02/16 10:37:36;;;;;;;23.90;13.03;;;;;;;5.22;100.00;101597.56;4978222;28;20283;-75
2023/02/16 10:40:19;;;;;;;23.10;12.87;;;;;;;5.23;100.00;101597.59;4975674;28;20284;-73
2023/02/16 10:42:52;;;;;;;21.03;11.93;;;;;;;5.27;100.00;101596.75;4982792;28;20214;-74
2023/02/16 10:45:25;;;;;;;21.37;12.20;;;;;;;5.37;100.00;101602.06;4976000;28;20324;-75
2023/02/16 10:47:52;;;;;;;20.83;11.80;;;;;;;5.42;100.00;101603.84;4978822;28;20205;-75
2023/02/16 10:50:25;;;;;;;19.17;12.27;;;;;;;5.53;100.00;101603.09;4975558;28;20229;-75
2023/02/16 10:52:58;;;;;;;19.60;12.07;;;;;;;5.59;100.00;101606.56;4980405;28;20225;-74
2023/02/16 10:55:24;;;;;;;21.73;11.50;;;;;;;5.63;100.00;101599.75;4977534;28;20283;-74
2023/02/16 10:57:54;;;;;;;22.47;12.20;;;;;;;5.72;100.00;101610.19;4978911;28;20210;-73
2023/02/16 11:00:27;;;;;;;18.33;11.33;;;;;;;5.74;100.00;101603.28;4980271;28;20296;-74
2023/02/16 11:02:54;;;;;;;21.47;12.40;;;;;;;5.75;100.00;101592.09;4976409;28;20678;-73
2023/02/16 11:05:37;;;;;;;22.97;12.17;;;;;;;5.83;100.00;101598.19;4965805;28;20686;-74
2023/02/16 11:08:05;;;;;;;28.07;13.97;;;;;;;5.92;100.00;101593.97;4974014;28;20603;-74
2023/02/16 11:10:44;;;;;;;26.37;13.00;;;;;;;6.00;100.00;101594.94;4963690;28;20229;-74
2023/02/16 11:13:26;;;;;;;20.30;12.47;;;;;;;6.13;100.00;101594.16;4977973;28;20222;-75
2023/02/16 11:15:56;;;;;;;22.03;12.73;;;;;;;6.17;100.00;101589.88;4980256;28;20209;-74
2023/02/16 11:18:30;;;;;;;21.73;13.00;;;;;;;6.22;100.00;101589.03;4976349;28;20205;-74
2023/02/16 11:20:58;;;;;;;26.07;12.53;;;;;;;6.27;100.00;101588.22;4977263;28;20476;-74
2023/02/16 11:23:27;;;;;;;21.37;13.03;;;;;;;6.27;100.00;101589.09;4978987;28;20194;-74
2023/02/16 11:25:59;;;;;;;23.53;12.53;;;;;;;6.39;100.00;101588.31;4980169;28;20324;-74
2023/02/16 11:28:28;;;;;;;20.73;12.17;;;;;;;6.48;100.00;101593.53;4975285;28;20456;-74
2023/02/16 11:31:04;;;;;;;21.53;12.23;;;;;;;6.55;100.00;101584.94;4976645;28;20601;-75
2023/02/16 11:33:31;;;;;;;22.10;12.20;;;;;;;6.59;100.00;101585.81;4976857;28;20311;-74
2023/02/16 11:36:01;;;;;;;20.63;12.40;;;;;;;6.64;100.00;101579.81;4974189;28;20553;-74
2023/02/16 11:38:30;;;;;;;21.97;13.03;;;;;;;6.75;100.00;101574.66;4978712;28;20212;-74
2023/02/16 11:40:58;;;;;;;21.07;11.93;;;;;;;6.87;100.00;101576.47;4974115;28;20316;-74
2023/02/16 11:43:27;;;;;;;19.73;12.07;;;;;;;6.94;100.00;101579.94;4977469;28;20228;-74
2023/02/16 11:46:00;;;;;;;19.67;11.70;;;;;;;6.96;100.00;101581.69;4979719;28;20217;-74
2023/02/16 11:48:28;;;;;;;22.00;11.40;;;;;;;7.02;100.00;101575.66;4973150;28;20201;-74
2023/02/16 11:51:01;;;;;;;20.57;12.23;;;;;;;7.12;100.00;101574.81;4977844;28;20225;-75
2023/02/16 11:53:31;;;;;;;21.60;12.23;;;;;;;7.16;100.00;101581.78;4979847;28;20222;-75